Time;durP1;ratioP1;P1;durP2;ratioP2;P2;SDS_P1;SDS_P2;PMS_P1;PMS_P2;Temp;Humidity;BMP_temperature;BMP_pressure;BME280_temperature;BME280_humidity;BME280_pressure;Samples;Min_cycle;Max_cycle;Signal;HPM_P1;HPM_P2
2021/11/26 00:01:41;;;;;;;10.13;6.00;;;;;;;5.61;61.31;100280.87;1707969;83;21447;-83
2021/11/26 00:04:08;;;;;;;10.50;6.08;;;;;;;5.55;61.40;100261.22;1721662;81;21575;-84
2021/11/26 00:06:35;;;;;;;9.98;6.15;;;;;;;5.49;61.44;100269.89;1722638;81;21743;-86
2021/11/26 00:09:01;;;;;;;11.33;5.58;;;;;;;5.42;61.64;100273.34;1720428;81;21049;-83
2021/11/26 00:11:28;;;;;;;15.32;6.03;;;;;;;5.36;61.82;100258.90;1721438;81;21069;-84
2021/11/26 00:14:45;;;;;;;10.95;6.25;;;;;;;5.34;62.04;100255.99;1715373;82;21031;-82
2021/11/26 00:16:28;;;;;;;11.33;6.75;;;;;;;5.31;62.15;100258.78;1697566;82;21568;-83
2021/11/26 00:18:58;;;;;;;10.15;6.30;;;;;;;5.27;62.26;100252.08;1688971;82;21053;-87
2021/11/26 00:21:21;;;;;;;11.40;6.42;;;;;;;5.21;62.38;100255.88;1708257;81;21054;-84
2021/11/26 00:23:47;;;;;;;12.18;6.95;;;;;;;5.25;62.47;100250.04;1714950;82;21059;-83
2021/11/26 00:26:14;;;;;;;12.53;6.05;;;;;;;5.33;62.34;100248.64;1718256;83;21115;-82
2021/11/26 00:28:40;;;;;;;17.07;7.30;;;;;;;5.39;62.27;100249.55;1720402;81;21074;-87
2021/11/26 00:31:07;;;;;;;11.68;7.08;;;;;;;5.38;62.29;100238.76;1717186;80;21025;-82
2021/11/26 00:33:33;;;;;;;10.40;5.87;;;;;;;5.37;62.30;100245.38;1713441;82;21097;-83
2021/11/26 00:36:00;;;;;;;9.83;5.83;;;;;;;5.36;62.27;100248.46;1710825;83;21031;-85
2021/11/26 00:38:27;;;;;;;11.25;7.17;;;;;;;5.35;62.33;100251.98;1682744;83;21030;-84
2021/11/26 00:40:53;;;;;;;9.63;6.33;;;;;;;5.32;62.34;100250.86;1659014;83;21110;-83
2021/11/26 00:43:20;;;;;;;11.65;7.08;;;;;;;5.31;62.29;100241.38;1705533;81;21095;-85
2021/11/26 00:45:46;;;;;;;10.55;5.95;;;;;;;5.26;62.40;100236.91;1729145;81;21064;-84
2021/11/26 00:48:15;;;;;;;11.65;5.60;;;;;;;5.25;62.47;100233.08;1733398;81;21049;-86
2021/11/26 00:50:43;;;;;;;11.63;6.85;;;;;;;5.23;62.51;100238.39;1720124;81;21086;-83
2021/11/26 00:53:09;;;;;;;11.63;6.30;;;;;;;5.25;62.47;100217.43;1693978;83;21435;-84
2021/11/26 00:56:28;;;;;;;11.95;5.72;;;;;;;5.36;62.47;100226.73;1810226;79;22711;-74
2021/11/26 00:58:55;;;;;;;9.60;5.85;;;;;;;5.36;62.37;100217.59;1775073;78;21663;-73
2021/11/26 01:01:22;;;;;;;9.08;5.45;;;;;;;5.36;62.44;100220.20;1741414;80;21322;-73
2021/11/26 01:03:49;;;;;;;12.10;6.62;;;;;;;5.36;62.40;100217.59;1779058;79;20951;-75
2021/11/26 01:06:16;;;;;;;10.75;6.15;;;;;;;5.34;62.24;100210.33;1764978;79;21068;-74
2021/11/26 01:08:43;;;;;;;12.20;5.87;;;;;;;5.30;62.36;100212.77;1781136;78;21058;-75
2021/11/26 01:11:09;;;;;;;10.72;6.12;;;;;;;5.24;62.38;100199.61;1750126;80;21030;-74
2021/11/26 01:13:36;;;;;;;10.48;6.72;;;;;;;5.17;62.30;100189.19;1774060;79;21742;-75
2021/11/26 01:16:04;;;;;;;9.93;5.85;;;;;;;5.10;62.45;100175.67;1770815;79;21622;-74
2021/11/26 01:18:30;;;;;;;12.85;6.42;;;;;;;5.07;62.52;100168.50;1759021;78;20940;-73
2021/11/26 01:20:58;;;;;;;11.63;7.03;;;;;;;5.05;62.66;100178.20;1779778;78;21030;-74
2021/11/26 01:23:25;;;;;;;15.35;6.90;;;;;;;5.08;62.53;100179.29;1767494;78;21062;-75
2021/11/26 01:25:53;;;;;;;11.88;6.37;;;;;;;5.20;62.20;100198.96;1763287;78;21946;-74
2021/11/26 01:28:19;;;;;;;12.23;6.37;;;;;;;5.28;61.84;100197.20;1759278;79;21571;-73
2021/11/26 01:30:48;;;;;;;9.75;5.45;;;;;;;5.31;61.86;100184.42;1777915;79;21563;-73
2021/11/26 01:33:15;;;;;;;10.20;4.78;;;;;;;5.28;61.66;100193.73;1764064;80;21069;-74
2021/11/26 01:35:42;;;;;;;11.57;6.33;;;;;;;5.26;61.65;100193.86;1775901;79;21014;-73
2021/11/26 01:38:09;;;;;;;10.98;6.53;;;;;;;5.26;61.41;100184.73;1781256;78;21518;-73
2021/11/26 01:40:37;;;;;;;10.68;5.95;;;;;;;5.20;61.35;100183.78;1773889;79;21038;-73
2021/11/26 01:43:06;;;;;;;9.80;6.00;;;;;;;5.15;61.32;100178.84;1773195;78;21034;-73
2021/11/26 01:45:45;;;;;;;11.90;6.42;;;;;;;5.09;61.33;100181.81;1769315;79;21038;-73
2021/11/26 01:48:11;;;;;;;11.12;6.28;;;;;;;5.03;61.40;100171.30;1772097;79;21695;-72
2021/11/26 01:50:37;;;;;;;9.85;5.85;;;;;;;4.97;61.40;100172.13;1772040;79;21993;-73
2021/11/26 01:53:04;;;;;;;11.20;6.35;;;;;;;4.93;61.51;100161.52;1770352;78;21043;-73
2021/11/26 01:55:32;;;;;;;10.43;6.00;;;;;;;4.87;61.41;100172.31;1776548;80;21012;-73
2021/11/26 01:57:58;;;;;;;13.35;6.87;;;;;;;4.79;61.44;100168.84;1743051;80;21419;-73
2021/11/26 02:00:28;;;;;;;12.63;7.03;;;;;;;4.73;61.51;100160.93;1755205;79;21102;-74
2021/11/26 02:02:55;;;;;;;10.93;5.47;;;;;;;4.63;61.66;100164.54;1774396;79;21420;-73
2021/11/26 02:05:21;;;;;;;10.95;6.55;;;;;;;4.55;61.67;100162.02;1758653;80;21021;-73
2021/11/26 02:07:48;;;;;;;14.10;7.47;;;;;;;4.45;61.82;100161.27;1765165;79;21015;-73
2021/11/26 02:10:14;;;;;;;13.43;6.45;;;;;;;4.42;61.92;100161.88;1760421;80;21158;-74
2021/11/26 02:12:41;;;;;;;12.28;6.15;;;;;;;4.46;61.88;100161.63;1744224;80;21039;-73
2021/11/26 02:15:08;;;;;;;10.72;6.47;;;;;;;4.50;61.85;100164.88;1754289;80;21116;-73
2021/11/26 02:17:36;;;;;;;9.88;5.45;;;;;;;4.51;61.86;100154.84;1769042;79;21028;-73
2021/11/26 02:20:07;;;;;;;11.15;6.17;;;;;;;4.46;61.90;100154.27;1738965;79;21051;-73
2021/11/26 02:22:34;;;;;;;12.45;5.92;;;;;;;4.42;61.97;100148.85;1746387;80;21027;-73
2021/11/26 02:25:01;;;;;;;10.08;5.85;;;;;;;4.37;62.00;100142.63;1752245;79;21038;-73
2021/11/26 02:27:28;;;;;;;11.65;7.03;;;;;;;4.32;62.03;100144.66;1739876;80;21152;-73
2021/11/26 02:29:54;;;;;;;10.15;6.15;;;;;;;4.26;62.05;100141.93;1743346;80;21023;-73
2021/11/26 02:32:22;;;;;;;10.05;6.37;;;;;;;4.20;62.12;100142.30;1715786;80;21055;-73
2021/11/26 02:34:49;;;;;;;9.93;5.47;;;;;;;4.11;62.25;100140.20;1762343;79;21051;-73
2021/11/26 02:37:15;;;;;;;13.53;6.50;;;;;;;4.05;62.40;100141.41;1744236;80;21082;-73
2021/11/26 02:39:42;;;;;;;10.45;5.78;;;;;;;4.00;62.50;100145.18;1766461;79;21976;-73
2021/11/26 02:42:09;;;;;;;11.08;6.58;;;;;;;3.96;62.60;100147.59;1740010;80;21808;-73
2021/11/26 02:44:35;;;;;;;12.25;7.05;;;;;;;3.91;62.60;100139.56;1744839;80;21082;-73
2021/11/26 02:47:02;;;;;;;11.63;6.28;;;;;;;3.84;62.75;100142.14;1759087;80;21075;-73
2021/11/26 02:49:29;;;;;;;12.90;6.72;;;;;;;3.77;62.84;100140.81;1760588;80;21020;-73
2021/11/26 02:51:55;;;;;;;12.30;7.10;;;;;;;3.70;62.97;100142.09;1761008;79;21022;-73
2021/11/26 02:54:22;;;;;;;14.20;7.08;;;;;;;3.69;63.05;100141.70;1756225;80;21032;-73
2021/11/26 02:56:48;;;;;;;10.63;6.72;;;;;;;3.75;62.94;100145.27;1744491;80;21037;-73
2021/11/26 02:59:15;;;;;;;9.20;5.53;;;;;;;3.80;62.94;100144.55;1783044;79;21040;-73
2021/11/26 03:01:41;;;;;;;13.25;6.17;;;;;;;3.89;63.13;100140.59;1746603;79;21146;-73
2021/11/26 03:04:07;;;;;;;10.38;6.42;;;;;;;3.97;63.23;100142.74;1770142;79;21092;-74
2021/11/26 03:06:34;;;;;;;10.08;6.33;;;;;;;4.03;63.32;100137.20;1767647;79;21059;-74
2021/11/26 03:09:00;;;;;;;12.73;6.90;;;;;;;4.09;63.18;100140.77;1768917;79;21046;-73
2021/11/26 03:11:27;;;;;;;12.18;6.92;;;;;;;4.11;62.99;100136.30;1756271;79;21034;-74
2021/11/26 03:13:54;;;;;;;12.63;6.58;;;;;;;4.13;62.81;100137.05;1757002;79;21077;-73
2021/11/26 03:16:20;;;;;;;11.73;6.58;;;;;;;4.11;62.67;100144.11;1709046;82;21060;-73
2021/11/26 03:18:49;;;;;;;15.08;6.90;;;;;;;4.07;62.62;100140.85;1750421;80;21074;-73
2021/11/26 03:21:15;;;;;;;12.88;7.17;;;;;;;3.99;62.54;100140.44;1771320;80;21031;-73
2021/11/26 03:23:42;;;;;;;15.13;6.45;;;;;;;3.91;62.83;100152.58;1761849;80;21023;-73
2021/11/26 03:26:08;;;;;;;16.55;7.10;;;;;;;3.86;63.06;100149.39;1740689;80;21541;-73
2021/11/26 03:28:35;;;;;;;13.35;6.58;;;;;;;3.83;63.12;100156.09;1763811;79;21856;-73
2021/11/26 03:31:02;;;;;;;16.15;7.17;;;;;;;3.80;63.12;100146.30;1738813;80;21071;-73
2021/11/26 03:33:29;;;;;;;13.05;7.58;;;;;;;3.75;63.21;100135.30;1744631;80;21072;-73
2021/11/26 03:35:55;;;;;;;10.18;6.17;;;;;;;3.70;63.32;100141.61;1761581;80;21144;-74
2021/11/26 03:38:21;;;;;;;13.98;7.15;;;;;;;3.67;63.49;100136.57;1762764;79;21057;-74
2021/11/26 03:40:48;;;;;;;10.72;6.62;;;;;;;3.71;63.50;100142.44;1745491;80;21051;-74
2021/11/26 03:43:15;;;;;;;10.23;5.60;;;;;;;3.79;63.35;100136.36;1736105;80;21083;-74
2021/11/26 03:45:41;;;;;;;13.38;6.80;;;;;;;3.88;63.25;100138.90;1761902;80;21099;-74
2021/11/26 03:48:08;;;;;;;10.50;5.75;;;;;;;3.94;63.39;100134.66;1744170;80;21023;-74
2021/11/26 03:50:35;;;;;;;11.03;6.37;;;;;;;4.01;63.44;100128.64;1737354;80;21004;-74
2021/11/26 03:53:03;;;;;;;10.10;6.53;;;;;;;4.02;63.43;100125.95;1762071;79;21039;-74
2021/11/26 03:55:30;;;;;;;16.42;6.97;;;;;;;4.02;63.35;100122.52;1738325;80;20987;-74
2021/11/26 03:57:57;;;;;;;10.20;6.35;;;;;;;3.99;63.27;100122.22;1752182;79;21049;-74
2021/11/26 04:00:24;;;;;;;10.75;6.37;;;;;;;3.97;63.35;100117.57;1760811;79;21085;-74
2021/11/26 04:02:51;;;;;;;12.73;6.33;;;;;;;3.94;63.34;100112.53;1759699;79;21373;-74
2021/11/26 04:05:18;;;;;;;12.55;6.03;;;;;;;3.93;63.45;100112.62;1757760;80;21527;-73
2021/11/26 04:07:44;;;;;;;12.35;7.08;;;;;;;3.88;63.34;100109.83;1749495;80;21098;-75
2021/11/26 04:10:11;;;;;;;11.25;6.53;;;;;;;3.81;63.46;100105.87;1741257;80;21035;-72
2021/11/26 04:12:38;;;;;;;11.15;6.37;;;;;;;3.73;63.62;100101.55;1763381;79;21042;-70
2021/11/26 04:15:07;;;;;;;13.03;6.25;;;;;;;3.70;63.74;100108.25;1743304;79;21063;-71
2021/11/26 04:17:35;;;;;;;12.73;5.87;;;;;;;3.63;64.00;100109.50;1759661;79;21129;-70
2021/11/26 04:20:04;;;;;;;11.03;6.15;;;;;;;3.55;64.08;100107.34;1753001;79;21063;-72
2021/11/26 04:22:31;;;;;;;13.98;6.33;;;;;;;3.53;64.23;100110.47;1741710;80;21016;-69
2021/11/26 04:24:58;;;;;;;10.85;6.35;;;;;;;3.61;64.21;100110.88;1762402;80;21047;-70
2021/11/26 04:27:24;;;;;;;10.43;5.75;;;;;;;3.67;64.37;100109.25;1762230;79;21141;-73
2021/11/26 04:29:51;;;;;;;13.80;6.12;;;;;;;3.72;64.48;100101.20;1758319;79;21130;-69
2021/11/26 04:32:17;;;;;;;10.03;6.20;;;;;;;3.73;64.54;100098.95;1759654;79;21063;-69
2021/11/26 04:34:44;;;;;;;12.28;6.83;;;;;;;3.71;64.73;100098.20;1743922;80;21522;-71
2021/11/26 04:37:11;;;;;;;14.47;5.87;;;;;;;3.67;64.81;100103.22;1761936;79;21103;-67
2021/11/26 04:39:38;;;;;;;12.73;7.00;;;;;;;3.62;64.96;100094.83;1762048;80;21132;-67
2021/11/26 04:42:05;;;;;;;11.48;7.05;;;;;;;3.57;65.09;100091.17;1735000;79;21126;-69
2021/11/26 04:44:32;;;;;;;11.10;6.67;;;;;;;3.51;65.17;100091.51;1764526;79;21008;-74
2021/11/26 04:46:59;;;;;;;9.95;6.70;;;;;;;3.44;65.56;100094.08;1763229;79;21098;-69
2021/11/26 04:49:25;;;;;;;10.70;5.78;;;;;;;3.35;65.79;100095.42;1755303;79;21035;-68
2021/11/26 04:51:52;;;;;;;10.48;6.28;;;;;;;3.27;66.02;100101.03;1760053;79;21044;-68
2021/11/26 04:54:18;;;;;;;12.53;7.55;;;;;;;3.22;66.21;100108.24;1762214;80;21134;-68
2021/11/26 04:56:45;;;;;;;12.33;7.08;;;;;;;3.21;66.42;100103.12;1740091;79;21082;-67
2021/11/26 04:59:11;;;;;;;12.45;6.70;;;;;;;3.28;66.40;100099.30;1762193;79;21093;-68
2021/11/26 05:01:38;;;;;;;11.50;7.15;;;;;;;3.32;66.45;100094.29;1756556;80;21084;-67
2021/11/26 05:04:04;;;;;;;15.23;6.75;;;;;;;3.36;66.48;100099.69;1760945;79;21102;-68
2021/11/26 05:06:34;;;;;;;10.98;6.22;;;;;;;3.33;66.71;100092.91;1757451;79;21205;-67
2021/11/26 05:09:00;;;;;;;9.60;5.90;;;;;;;3.32;66.76;100082.59;1735935;80;21231;-69
2021/11/26 05:11:27;;;;;;;16.62;9.28;;;;;;;3.29;66.78;100082.27;1759826;79;20972;-67
2021/11/26 05:13:55;;;;;;;12.00;6.53;;;;;;;3.26;66.82;100072.06;1737437;80;20980;-69
2021/11/26 05:16:22;;;;;;;17.20;10.35;;;;;;;3.22;66.96;100078.34;1759648;79;21070;-69
2021/11/26 05:18:50;;;;;;;13.40;7.17;;;;;;;3.18;67.10;100078.58;1763056;80;21028;-73
2021/11/26 05:21:16;;;;;;;12.65;6.78;;;;;;;3.13;67.25;100078.38;1768150;79;21114;-68
2021/11/26 05:23:43;;;;;;;12.93;5.90;;;;;;;3.13;67.29;100078.86;1760487;79;21090;-69
2021/11/26 05:26:10;;;;;;;12.13;6.47;;;;;;;3.20;67.24;100085.86;1770914;79;21035;-69
2021/11/26 05:28:36;;;;;;;10.15;6.10;;;;;;;3.27;67.16;100092.41;1743311;80;21043;-68
2021/11/26 05:31:03;;;;;;;12.85;7.22;;;;;;;3.24;67.26;100092.09;1761292;79;21054;-70
2021/11/26 05:33:30;;;;;;;12.73;6.72;;;;;;;3.23;67.34;100101.27;1754094;79;21087;-68
2021/11/26 05:35:57;;;;;;;11.55;6.67;;;;;;;3.21;67.29;100096.62;1741009;79;20975;-66
2021/11/26 05:38:23;;;;;;;12.30;7.12;;;;;;;3.19;67.28;100097.17;1757235;79;21482;-67
2021/11/26 05:40:50;;;;;;;10.15;6.08;;;;;;;3.15;67.38;100097.33;1765397;79;21556;-70
2021/11/26 05:43:17;;;;;;;12.70;6.87;;;;;;;3.15;67.40;100095.20;1737480;80;22629;-67
2021/11/26 05:45:45;;;;;;;10.68;6.58;;;;;;;3.15;67.49;100082.20;1752075;79;21609;-67
2021/11/26 05:48:12;;;;;;;10.75;6.25;;;;;;;3.20;67.38;100074.16;1681923;84;21510;-67
2021/11/26 05:50:38;;;;;;;12.10;7.28;;;;;;;3.30;67.18;100073.56;1763028;80;20952;-66
2021/11/26 05:53:05;;;;;;;13.95;6.92;;;;;;;3.39;67.07;100075.28;1725810;79;21055;-66
2021/11/26 05:55:32;;;;;;;10.82;6.45;;;;;;;3.43;66.96;100088.05;1760146;79;21611;-69
2021/11/26 05:58:00;;;;;;;10.48;6.60;;;;;;;3.42;67.01;100086.36;1759718;79;21402;-67
2021/11/26 06:00:28;;;;;;;12.53;7.05;;;;;;;3.40;67.02;100079.11;1760416;79;21114;-66
2021/11/26 06:02:54;;;;;;;11.65;6.40;;;;;;;3.35;67.07;100074.15;1756569;79;21119;-66
2021/11/26 06:05:21;;;;;;;15.95;6.85;;;;;;;3.33;67.14;100071.27;1763756;80;21002;-66
2021/11/26 06:07:47;;;;;;;10.72;6.40;;;;;;;3.32;67.13;100071.71;1753364;80;21081;-66
2021/11/26 06:10:14;;;;;;;13.38;7.20;;;;;;;3.29;67.25;100073.64;1741123;80;21074;-66
2021/11/26 06:12:42;;;;;;;10.95;6.20;;;;;;;3.28;67.35;100074.11;1739669;80;21045;-66
2021/11/26 06:15:10;;;;;;;11.80;7.65;;;;;;;3.35;67.28;100074.62;1767750;79;21063;-66
2021/11/26 06:17:39;;;;;;;10.68;7.37;;;;;;;3.46;67.07;100072.27;1762450;79;21062;-66
2021/11/26 06:20:07;;;;;;;10.90;6.28;;;;;;;3.55;66.90;100077.42;1763453;79;21051;-65
2021/11/26 06:22:34;;;;;;;12.00;6.90;;;;;;;3.61;66.84;100074.45;1743592;80;21098;-66
2021/11/26 06:25:01;;;;;;;11.60;5.95;;;;;;;3.61;66.82;100078.36;1755930;79;21016;-68
2021/11/26 06:27:27;;;;;;;12.63;7.75;;;;;;;3.59;66.77;100077.61;1757825;79;21074;-66
2021/11/26 06:29:54;;;;;;;11.15;7.05;;;;;;;3.58;66.79;100081.59;1765560;79;21066;-67
2021/11/26 06:32:23;;;;;;;13.83;7.00;;;;;;;3.58;66.81;100085.50;1742085;80;21220;-67
2021/11/26 06:34:50;;;;;;;12.03;6.85;;;;;;;3.56;66.77;100087.36;1736232;80;21561;-67
2021/11/26 06:37:16;;;;;;;12.13;7.50;;;;;;;3.52;66.87;100084.92;1759040;79;21560;-71
2021/11/26 06:39:43;;;;;;;12.55;6.92;;;;;;;3.58;66.84;100096.77;1756286;80;21537;-70
2021/11/26 06:42:11;;;;;;;12.23;6.70;;;;;;;3.70;66.72;100092.17;1765370;80;21060;-71
2021/11/26 06:44:38;;;;;;;10.95;5.62;;;;;;;3.81;66.49;100099.36;1767531;79;21798;-71
2021/11/26 06:47:04;;;;;;;12.37;7.10;;;;;;;3.85;66.42;100091.77;1699691;82;21552;-69
2021/11/26 06:49:31;;;;;;;12.45;6.35;;;;;;;3.87;66.38;100090.39;1765788;79;21070;-69
2021/11/26 06:51:58;;;;;;;10.85;6.15;;;;;;;3.87;66.23;100092.52;1759086;79;21074;-72
2021/11/26 06:54:24;;;;;;;10.78;6.28;;;;;;;3.85;66.19;100094.37;1746816;80;21588;-69
2021/11/26 06:56:51;;;;;;;10.18;6.08;;;;;;;3.82;66.20;100089.81;1766925;79;21332;-67
2021/11/26 06:59:17;;;;;;;11.05;6.10;;;;;;;3.78;66.30;100083.91;1769526;79;21053;-73
2021/11/26 07:01:44;;;;;;;11.68;6.53;;;;;;;3.75;66.42;100091.06;1767711;79;21044;-72
2021/11/26 07:04:12;;;;;;;10.20;6.12;;;;;;;3.81;66.53;100098.53;1772653;79;21550;-68
2021/11/26 07:06:38;;;;;;;8.33;5.12;;;;;;;3.95;66.44;100099.91;1770554;79;21048;-69
2021/11/26 07:09:05;;;;;;;12.03;5.83;;;;;;;4.05;66.31;100084.57;1739723;80;21073;-71
2021/11/26 07:11:32;;;;;;;8.95;5.47;;;;;;;4.11;66.10;100078.19;1770267;79;21034;-69
2021/11/26 07:13:59;;;;;;;12.03;5.92;;;;;;;4.11;66.05;100072.51;1742447;79;21090;-70
2021/11/26 07:16:26;;;;;;;11.65;6.28;;;;;;;4.12;65.82;100070.29;1744522;80;21059;-69
2021/11/26 07:18:53;;;;;;;8.85;5.90;;;;;;;4.11;65.78;100072.51;1761820;79;21070;-69
2021/11/26 07:21:19;;;;;;;9.10;5.42;;;;;;;4.11;65.77;100072.51;1739400;79;21072;-69
2021/11/26 07:23:46;;;;;;;11.53;5.58;;;;;;;4.10;65.80;100065.61;1741254;80;20996;-68
2021/11/26 07:26:13;;;;;;;10.88;5.20;;;;;;;4.17;65.64;100072.16;1778031;79;21543;-69
2021/11/26 07:28:41;;;;;;;11.80;5.58;;;;;;;4.29;65.49;100070.60;1767962;79;21058;-69
2021/11/26 07:31:09;;;;;;;9.83;4.75;;;;;;;4.42;65.44;100075.91;1733273;79;21104;-66
2021/11/26 07:33:36;;;;;;;9.63;4.72;;;;;;;4.50;65.02;100081.50;1734862;80;21118;-66
2021/11/26 07:36:02;;;;;;;11.55;4.95;;;;;;;4.52;64.83;100074.42;1738761;80;21110;-69
2021/11/26 07:38:28;;;;;;;10.08;5.05;;;;;;;4.54;64.95;100078.24;1770533;79;21776;-69
2021/11/26 07:40:56;;;;;;;10.95;5.65;;;;;;;4.54;64.83;100075.20;1767297;79;21493;-69
2021/11/26 07:43:22;;;;;;;11.00;5.70;;;;;;;4.57;64.94;100080.23;1772198;79;21086;-69
2021/11/26 07:45:49;;;;;;;9.15;5.00;;;;;;;4.61;64.70;100079.58;1765576;79;21526;-69
2021/11/26 07:48:16;;;;;;;9.18;4.55;;;;;;;4.63;64.56;100085.05;1769127;79;21023;-68
2021/11/26 07:50:44;;;;;;;11.63;5.08;;;;;;;4.65;64.60;100080.58;1742296;79;21094;-67
2021/11/26 07:53:11;;;;;;;9.30;4.70;;;;;;;4.74;64.47;100082.26;1772292;79;21054;-67
2021/11/26 07:55:37;;;;;;;10.95;4.67;;;;;;;4.87;64.21;100069.33;1766759;79;21062;-67
2021/11/26 07:58:06;;;;;;;10.08;5.17;;;;;;;4.98;64.05;100073.42;1748512;79;21858;-67
2021/11/26 08:00:34;;;;;;;10.08;5.25;;;;;;;5.04;64.06;100063.90;1726976;82;21023;-68
2021/11/26 08:03:03;;;;;;;10.32;4.58;;;;;;;5.09;63.70;100057.09;1744910;80;21026;-68
2021/11/26 08:05:30;;;;;;;9.63;5.33;;;;;;;5.15;63.60;100063.25;1765074;79;21686;-68
2021/11/26 08:07:58;;;;;;;10.60;5.25;;;;;;;5.20;63.51;100069.84;1709430;82;21047;-68
2021/11/26 08:10:26;;;;;;;11.57;5.65;;;;;;;5.27;63.62;100083.34;1709024;83;21097;-68
2021/11/26 08:12:52;;;;;;;8.55;4.80;;;;;;;5.34;63.04;100088.53;1761102;79;21546;-69
2021/11/26 08:15:19;;;;;;;10.10;4.55;;;;;;;5.38;63.09;100092.64;1774359;79;21532;-69
2021/11/26 08:17:47;;;;;;;8.38;4.70;;;;;;;5.44;62.97;100096.62;1736951;79;21596;-69
2021/11/26 08:20:15;;;;;;;8.50;4.78;;;;;;;5.55;62.82;100112.92;1765614;79;21444;-70
2021/11/26 08:22:42;;;;;;;8.05;4.17;;;;;;;5.70;62.11;100099.34;1771745;79;21145;-68
2021/11/26 08:25:10;;;;;;;11.43;4.30;;;;;;;5.74;61.75;100097.74;1766137;79;21030;-71
2021/11/26 08:27:37;;;;;;;8.45;3.98;;;;;;;5.71;61.87;100093.19;1770218;79;21054;-69
2021/11/26 08:30:05;;;;;;;8.25;4.70;;;;;;;5.69;61.89;100101.12;1771261;79;21074;-73
2021/11/26 08:32:33;;;;;;;8.73;4.10;;;;;;;5.66;61.96;100103.92;1767909;79;21567;-70
2021/11/26 08:35:00;;;;;;;8.45;5.15;;;;;;;5.66;62.02;100088.73;1770864;79;21636;-73
2021/11/26 08:37:26;;;;;;;12.33;4.70;;;;;;;5.67;62.02;100096.47;1762750;79;21098;-71
2021/11/26 08:39:52;;;;;;;7.87;4.62;;;;;;;5.68;62.10;100090.33;1744324;80;21026;-72
2021/11/26 08:42:19;;;;;;;9.43;4.83;;;;;;;5.70;62.16;100076.70;1768164;79;21050;-71
2021/11/26 08:44:46;;;;;;;8.83;5.65;;;;;;;5.79;62.02;100074.44;1770103;79;21088;-70
2021/11/26 08:47:12;;;;;;;11.08;5.83;;;;;;;5.94;61.80;100066.90;1726087;79;21066;-69
2021/11/26 08:49:39;;;;;;;8.50;4.50;;;;;;;6.07;61.54;100065.62;1767882;79;21136;-72
2021/11/26 08:52:07;;;;;;;9.20;4.75;;;;;;;6.13;61.40;100067.37;1766586;79;21090;-68
2021/11/26 08:54:35;;;;;;;9.35;4.60;;;;;;;6.20;61.30;100054.73;1771863;79;21072;-73
2021/11/26 08:57:02;;;;;;;9.18;5.33;;;;;;;6.25;61.02;100055.73;1759169;79;21089;-71
2021/11/26 08:59:28;;;;;;;7.80;4.50;;;;;;;6.30;60.71;100057.57;1744064;79;21114;-68
2021/11/26 09:01:55;;;;;;;10.35;4.33;;;;;;;6.30;60.49;100047.97;1772990;79;21086;-72
2021/11/26 09:04:22;;;;;;;9.68;5.25;;;;;;;6.29;60.34;100041.55;1710081;82;21119;-70
2021/11/26 09:06:51;;;;;;;11.00;4.78;;;;;;;6.31;60.41;100038.34;1770600;79;21646;-69
2021/11/26 09:09:19;;;;;;;7.92;4.10;;;;;;;6.36;60.23;100034.95;1767188;79;21082;-73
2021/11/26 09:11:46;;;;;;;9.93;5.17;;;;;;;6.39;59.92;100037.36;1680005;82;21892;-71
2021/11/26 09:14:12;;;;;;;8.53;4.60;;;;;;;6.43;59.89;100035.38;1680340;83;21630;-69
2021/11/26 09:16:40;;;;;;;8.73;5.60;;;;;;;6.49;59.80;100023.20;1768382;79;21607;-69
2021/11/26 09:19:06;;;;;;;9.55;4.10;;;;;;;6.58;59.92;100023.03;1769273;79;21073;-68
2021/11/26 09:21:33;;;;;;;10.13;5.60;;;;;;;6.76;59.34;100026.13;1744439;79;21102;-67
2021/11/26 09:24:00;;;;;;;9.05;4.60;;;;;;;6.90;59.01;100012.10;1767899;78;21390;-68
2021/11/26 09:26:27;;;;;;;7.75;4.50;;;;;;;6.99;58.87;100006.20;1770591;79;21054;-68
2021/11/26 09:28:54;;;;;;;11.93;5.72;;;;;;;7.05;58.45;100003.98;1764397;79;21620;-68
2021/11/26 09:31:21;;;;;;;8.93;4.40;;;;;;;7.10;58.35;100004.15;1767918;79;21547;-68
2021/11/26 09:33:50;;;;;;;9.15;4.10;;;;;;;7.13;58.07;99988.20;1728911;80;21571;-67
2021/11/26 09:36:16;;;;;;;8.28;4.95;;;;;;;7.14;57.89;99995.13;1769300;79;21610;-67
2021/11/26 09:38:43;;;;;;;8.70;4.62;;;;;;;7.13;57.91;99991.68;1768015;78;21834;-67
2021/11/26 09:41:12;;;;;;;8.25;4.35;;;;;;;7.12;57.73;99982.14;1743673;80;21566;-67
2021/11/26 09:43:39;;;;;;;10.15;4.60;;;;;;;7.12;57.82;99983.94;1764684;79;21032;-67
2021/11/26 09:46:06;;;;;;;7.47;4.47;;;;;;;7.09;57.81;99984.16;1767236;79;21077;-67
2021/11/26 09:48:35;;;;;;;9.58;5.30;;;;;;;7.08;57.64;99978.09;1769066;79;21097;-68
2021/11/26 09:51:04;;;;;;;8.43;4.85;;;;;;;7.10;57.61;99972.75;1772589;79;21081;-68
2021/11/26 09:53:30;;;;;;;7.28;4.15;;;;;;;7.11;57.59;99964.80;1743610;80;21137;-68
2021/11/26 09:56:03;;;;;;;7.10;4.05;;;;;;;7.13;57.73;99962.04;1709246;82;21035;-69
2021/11/26 09:58:31;;;;;;;8.15;3.87;;;;;;;7.16;57.94;99955.28;1765230;79;21579;-67
2021/11/26 10:01:00;;;;;;;8.53;4.17;;;;;;;7.22;57.38;99959.59;1766090;79;21155;-68
2021/11/26 10:03:46;;;;;;;8.15;3.55;;;;;;;7.24;57.17;99951.16;1768664;79;21634;-68
2021/11/26 10:06:26;;;;;;;8.50;4.42;;;;;;;7.25;57.28;99940.23;1770449;79;21687;-69
2021/11/26 10:09:03;;;;;;;8.85;4.42;;;;;;;7.27;57.43;99935.72;1738254;79;21073;-68
2021/11/26 10:11:31;;;;;;;10.32;5.87;;;;;;;7.34;57.71;99934.79;1725358;81;21151;-68
2021/11/26 10:13:58;;;;;;;7.72;3.72;;;;;;;7.44;57.34;99930.05;1703562;82;21117;-68
2021/11/26 10:16:24;;;;;;;8.63;4.50;;;;;;;7.52;56.93;99911.17;1679800;83;21146;-68
2021/11/26 10:18:53;;;;;;;9.68;4.92;;;;;;;7.59;56.89;99911.06;1701444;82;21166;-69
2021/11/26 10:21:19;;;;;;;8.20;3.95;;;;;;;7.66;56.69;99917.16;1682003;83;21058;-68
2021/11/26 10:23:49;;;;;;;9.88;4.55;;;;;;;7.69;56.70;99901.22;1761028;79;21150;-68
2021/11/26 10:26:21;;;;;;;8.98;4.42;;;;;;;7.77;56.25;99896.23;1770418;79;21127;-68
2021/11/26 10:29:02;;;;;;;7.90;4.08;;;;;;;7.83;55.89;99897.55;1762645;79;21075;-68
2021/11/26 10:31:36;;;;;;;6.90;4.20;;;;;;;7.88;56.01;99898.03;1767092;79;21047;-67
2021/11/26 10:34:05;;;;;;;9.00;5.72;;;;;;;7.95;55.47;99884.80;1741527;79;21237;-67
2021/11/26 10:36:46;;;;;;;8.43;4.78;;;;;;;7.98;55.77;99885.43;1764931;79;21036;-68
2021/11/26 10:39:20;;;;;;;6.20;3.33;;;;;;;8.10;55.85;99875.78;1728745;79;21089;-67
2021/11/26 10:41:52;;;;;;;7.03;4.05;;;;;;;8.21;55.71;99877.56;1725340;81;21734;-68
2021/11/26 10:44:18;;;;;;;13.35;6.78;;;;;;;8.33;55.69;99880.52;1702462;82;21425;-68
2021/11/26 10:47:03;;;;;;;7.55;3.75;;;;;;;8.43;55.50;99883.28;1764929;79;21137;-68
2021/11/26 10:49:36;;;;;;;8.38;3.92;;;;;;;8.51;55.36;99886.63;1762602;79;21638;-69
2021/11/26 11:00:00;;;;;;;7.75;3.92;;;;;;;8.66;54.69;99867.52;1761489;79;21031;-69
2021/11/26 11:02:36;;;;;;;8.05;4.35;;;;;;;8.69;54.74;99864.63;1739891;80;21079;-69
2021/11/26 11:05:25;;;;;;;8.88;4.15;;;;;;;8.72;54.45;99862.62;1763641;79;20965;-69
2021/11/26 11:07:52;;;;;;;10.98;4.67;;;;;;;8.71;54.53;99856.18;1717459;81;21552;-68
2021/11/26 11:10:35;;;;;;;8.55;3.90;;;;;;;8.68;54.28;99848.06;1756888;80;21093;-68
2021/11/26 11:13:11;;;;;;;8.35;3.77;;;;;;;8.63;54.43;99846.78;1742978;80;21063;-69
2021/11/26 11:15:39;;;;;;;7.60;4.10;;;;;;;8.62;54.66;99841.17;1746239;80;21071;-69
2021/11/26 11:18:05;;;;;;;7.05;3.55;;;;;;;8.63;54.69;99841.53;1737839;80;21086;-69
2021/11/26 11:20:34;;;;;;;6.87;3.70;;;;;;;8.66;54.63;99842.13;1745072;80;21009;-68
2021/11/26 11:23:01;;;;;;;6.80;3.60;;;;;;;8.68;54.61;99837.58;1762738;79;21141;-68
2021/11/26 11:25:28;;;;;;;7.00;3.50;;;;;;;8.73;54.45;99840.66;1741178;80;21091;-68
2021/11/26 11:27:58;;;;;;;9.80;5.15;;;;;;;8.77;54.49;99840.41;1761250;80;21016;-70
2021/11/26 11:30:25;;;;;;;8.93;3.50;;;;;;;8.80;54.28;99837.55;1764365;79;21473;-70
2021/11/26 11:32:51;;;;;;;8.13;4.22;;;;;;;8.83;54.03;99848.62;1765516;79;21095;-70
2021/11/26 11:35:24;;;;;;;7.72;3.90;;;;;;;8.82;54.01;99852.67;1753767;79;21094;-68
2021/11/26 11:37:54;;;;;;;7.35;3.58;;;;;;;8.84;54.16;99866.50;1764422;79;21061;-69
2021/11/26 11:40:38;;;;;;;7.25;3.85;;;;;;;8.87;54.04;99870.19;1756251;80;21105;-69